Time;durP1;ratioP1;P1;durP2;ratioP2;P2;SDS_P1;SDS_P2;PMS_P1;PMS_P2;Temp;Humidity;BMP_temperature;BMP_pressure;BME280_temperature;BME280_humidity;BME280_pressure;Samples;Min_cycle;Max_cycle;Signal;HPM_P1;HPM_P2
2021/03/12 00:00:37;;;;;;;18.15;13.55;;;230.40;1228.80;;;;;;5094891;28;20479;-76
2021/03/12 00:03:11;;;;;;;24.38;15.18;;;230.40;1228.80;;;;;;5093542;28;20035;-76
2021/03/12 00:05:55;;;;;;;18.92;12.98;;;230.40;1228.80;;;;;;5096279;28;20047;-76
2021/03/12 00:08:28;;;;;;;22.92;13.52;;;205.70;1228.80;;;;;;5096661;28;20028;-76
2021/03/12 00:10:54;;;;;;;22.08;15.70;;;205.70;1228.80;;;;;;5095124;28;20050;-76
2021/03/12 00:13:21;;;;;;;23.45;13.07;;;205.70;1228.80;;;;;;5095977;28;20380;-76
2021/03/12 00:15:48;;;;;;;22.35;14.13;;;205.70;1228.80;;;;;;5094964;28;20483;-75
2021/03/12 00:18:16;;;;;;;20.77;14.70;;;205.70;1254.40;;;;;;5096096;28;20123;-75
2021/03/12 00:20:42;;;;;;;21.95;14.05;;;205.70;1228.80;;;;;;5093892;28;20032;-76
2021/03/12 00:23:08;;;;;;;18.83;13.02;;;205.70;1254.40;;;;;;5094587;28;20043;-75
2021/03/12 00:25:40;;;;;;;22.20;12.70;;;230.40;1254.40;;;;;;5093530;28;20032;-75
2021/03/12 00:28:07;;;;;;;20.27;13.70;;;205.70;1254.40;;;;;;5093089;28;20020;-75
2021/03/12 00:30:34;;;;;;;20.35;13.57;;;205.70;1254.40;;;;;;5094923;28;20028;-75
2021/03/12 00:33:00;;;;;;;22.20;14.00;;;205.60;1254.40;;;;;;5094541;28;20059;-75
2021/03/12 00:35:26;;;;;;;19.30;14.25;;;205.70;1254.40;;;;;;5095867;28;20028;-75
2021/03/12 00:37:52;;;;;;;19.70;13.65;;;205.70;1254.40;;;;;;5095826;28;20054;-76
2021/03/12 00:40:21;;;;;;;20.48;13.00;;;205.70;1254.40;;;;;;5093978;28;20032;-75
2021/03/12 00:42:47;;;;;;;22.17;13.00;;;230.40;1254.40;;;;;;5094252;28;20023;-76
2021/03/12 00:45:16;;;;;;;19.20;13.50;;;230.40;1254.40;;;;;;5093732;28;20424;-75
2021/03/12 00:47:43;;;;;;;19.60;13.10;;;230.40;1254.40;;;;;;5094368;28;20058;-75
2021/03/12 00:50:10;;;;;;;18.55;12.43;;;230.40;1254.40;;;;;;5094744;28;20028;-76
2021/03/12 00:52:36;;;;;;;22.85;13.48;;;230.40;1280.00;;;;;;5095153;28;20400;-75
2021/03/12 00:55:03;;;;;;;19.73;11.55;;;205.70;1305.60;;;;;;5094202;28;20031;-75
2021/03/12 00:57:28;;;;;;;21.08;13.48;;;205.70;1305.60;;;;;;5093859;28;20032;-75
2021/03/12 00:59:54;;;;;;;20.65;13.55;;;205.70;1356.80;;;;;;5095391;28;20028;-75
2021/03/12 01:02:20;;;;;;;23.42;13.98;;;205.70;1356.80;;;;;;5093192;28;20034;-75
2021/03/12 01:04:45;;;;;;;23.48;14.77;;;205.60;1382.40;;;;;;5094464;28;20020;-76
2021/03/12 01:07:11;;;;;;;20.33;13.30;;;205.60;1382.40;;;;;;5092402;28;20036;-75
2021/03/12 01:09:37;;;;;;;21.75;14.18;;;205.60;1382.40;;;;;;5094828;28;20123;-76
2021/03/12 01:12:03;;;;;;;20.58;13.80;;;205.50;1433.60;;;;;;5093390;28;20036;-76
2021/03/12 01:14:29;;;;;;;20.20;13.35;;;205.60;1408.00;;;;;;5093760;28;20039;-76
2021/03/12 01:16:54;;;;;;;19.67;12.25;;;205.60;1408.00;;;;;;5093427;28;20024;-76
2021/03/12 01:19:20;;;;;;;20.23;13.38;;;205.60;1382.40;;;;;;5093641;28;20539;-76
2021/03/12 01:21:46;;;;;;;17.67;12.95;;;205.60;1382.40;;;;;;5094900;28;20022;-76
2021/03/12 01:24:13;;;;;;;18.63;13.75;;;205.60;1382.40;;;;;;5094842;28;20028;-75
2021/03/12 01:26:39;;;;;;;20.70;13.32;;;205.60;1382.40;;;;;;5095231;28;20052;-75
2021/03/12 01:29:05;;;;;;;20.42;14.18;;;205.60;1382.40;;;;;;5093126;28;20032;-75
2021/03/12 01:31:31;;;;;;;17.15;12.90;;;205.70;1382.40;;;;;;5093490;28;20047;-75
2021/03/12 01:33:56;;;;;;;20.83;12.98;;;205.60;1382.40;;;;;;5094736;28;20099;-76
2021/03/12 01:36:22;;;;;;;21.00;13.07;;;205.70;1382.40;;;;;;5092973;28;20024;-75
2021/03/12 01:38:48;;;;;;;19.85;13.48;;;205.60;1382.40;;;;;;5094638;28;20430;-75
2021/03/12 01:41:14;;;;;;;18.90;12.75;;;205.60;1382.40;;;;;;5092704;28;20036;-75
2021/03/12 01:43:39;;;;;;;22.00;13.82;;;205.60;1408.00;;;;;;5094568;28;20044;-75
2021/03/12 01:46:05;;;;;;;19.75;14.52;;;205.60;1382.40;;;;;;5094477;28;20016;-77
2021/03/12 01:48:31;;;;;;;23.13;14.25;;;205.60;1382.40;;;;;;5094457;28;20043;-76
2021/03/12 01:51:03;;;;;;;19.73;12.25;;;205.60;1356.80;;;;;;5092794;28;20040;-75
2021/03/12 01:53:28;;;;;;;16.95;12.35;;;205.60;1356.80;;;;;;5094786;28;20476;-76
2021/03/12 01:55:56;;;;;;;20.00;13.45;;;205.60;1382.40;;;;;;5094186;28;20031;-76
2021/03/12 01:58:22;;;;;;;20.55;12.30;;;205.50;1382.40;;;;;;5092715;28;20032;-75
2021/03/12 02:00:49;;;;;;;17.10;12.52;;;205.60;1382.40;;;;;;5092943;28;20070;-75
2021/03/12 02:03:19;;;;;;;18.67;12.15;;;205.50;1382.40;;;;;;5094191;28;20379;-75
2021/03/12 02:05:46;;;;;;;21.92;13.32;;;205.50;1382.40;;;;;;5092755;28;20492;-76
2021/03/12 02:08:12;;;;;;;18.52;13.45;;;205.50;1382.40;;;;;;5094293;28;20044;-75
2021/03/12 02:10:38;;;;;;;18.25;13.30;;;205.60;1356.80;;;;;;5092489;28;20396;-76
2021/03/12 02:13:16;;;;;;;18.25;12.77;;;205.60;1382.40;;;;;;5093772;28;20035;-75
2021/03/12 02:15:54;;;;;;;20.70;14.20;;;205.50;1382.40;;;;;;5092349;28;20028;-76
2021/03/12 02:18:32;;;;;;;19.23;13.50;;;205.50;1382.40;;;;;;5093451;28;20024;-76
2021/03/12 02:21:07;;;;;;;19.33;13.02;;;205.60;1382.40;;;;;;5093941;28;20529;-76
2021/03/12 02:23:51;;;;;;;19.00;12.00;;;205.50;1382.40;;;;;;5093730;28;20028;-76
2021/03/12 02:26:41;;;;;;;20.25;12.70;;;205.50;1382.40;;;;;;5092138;28;20773;-75
2021/03/12 02:29:09;;;;;;;20.20;14.02;;;205.50;1382.40;;;;;;5092504;28;20020;-75
2021/03/12 02:31:36;;;;;;;19.30;13.45;;;205.50;1382.40;;;;;;5093725;28;20032;-75
2021/03/12 02:34:06;;;;;;;17.95;12.35;;;205.50;1356.80;;;;;;5092201;28;20024;-75
2021/03/12 02:36:34;;;;;;;19.92;13.73;;;205.50;1356.80;;;;;;5093876;28;20012;-75
2021/03/12 02:39:01;;;;;;;18.88;12.23;;;205.50;1382.40;;;;;;5093622;28;20077;-75
2021/03/12 02:41:29;;;;;;;18.83;12.13;;;205.40;1382.40;;;;;;5091453;28;20050;-75
2021/03/12 02:43:55;;;;;;;20.85;14.48;;;205.40;1382.40;;;;;;5093569;28;20024;-75
2021/03/12 02:46:23;;;;;;;19.67;13.85;;;205.50;1382.40;;;;;;5093508;28;20115;-75
2021/03/12 02:48:51;;;;;;;18.13;12.35;;;205.50;1356.80;;;;;;5091696;28;20467;-76
2021/03/12 02:51:17;;;;;;;17.83;12.32;;;205.60;1356.80;;;;;;5092211;28;20025;-75
2021/03/12 02:53:45;;;;;;;19.33;12.63;;;205.50;1356.80;;;;;;5092212;28;20025;-75
2021/03/12 02:56:12;;;;;;;17.40;11.73;;;205.50;1382.40;;;;;;5093332;28;20024;-75
2021/03/12 02:58:40;;;;;;;19.55;13.43;;;205.40;1382.40;;;;;;5092090;28;20020;-75
2021/03/12 03:01:06;;;;;;;15.18;11.60;;;205.40;1382.40;;;;;;5093290;28;20080;-75
2021/03/12 03:03:35;;;;;;;16.45;11.88;;;205.40;1382.40;;;;;;5093429;28;20110;-75
2021/03/12 03:06:03;;;;;;;17.67;11.68;;;205.50;1382.40;;;;;;5093157;28;20115;-76
2021/03/12 03:08:30;;;;;;;19.17;12.32;;;205.40;1382.40;;;;;;5092166;28;20024;-76
2021/03/12 03:11:00;;;;;;;19.35;12.57;;;205.50;1382.40;;;;;;5073802;28;20031;-75
2021/03/12 03:13:35;;;;;;;13.57;10.52;;;205.50;1382.40;;;;;;5089699;28;20082;-75
2021/03/12 03:16:02;;;;;;;17.98;11.98;;;205.40;1382.40;;;;;;5091458;28;20028;-75
2021/03/12 03:18:31;;;;;;;17.23;11.77;;;205.50;1382.40;;;;;;5093205;28;20028;-76
2021/03/12 03:21:00;;;;;;;17.30;11.87;;;205.40;1382.40;;;;;;5091861;28;20062;-76
2021/03/12 03:23:27;;;;;;;20.60;13.07;;;205.50;1382.40;;;;;;5089895;28;20028;-75
2021/03/12 03:25:54;;;;;;;16.42;11.85;;;205.50;1382.40;;;;;;5091523;28;20100;-75
2021/03/12 03:28:20;;;;;;;16.50;12.50;;;205.50;1382.40;;;;;;5091898;28;20013;-75
2021/03/12 03:30:45;;;;;;;16.67;11.00;;;205.50;1382.40;;;;;;5097290;28;20035;-75
2021/03/12 03:33:11;;;;;;;15.48;11.55;;;205.40;1408.00;;;;;;5097027;28;20024;-75
2021/03/12 03:35:37;;;;;;;23.08;11.65;;;205.40;1382.40;;;;;;5095840;28;20581;-75
2021/03/12 03:38:03;;;;;;;15.18;11.13;;;205.40;1382.40;;;;;;5096715;28;20043;-76
2021/03/12 03:40:29;;;;;;;17.42;11.48;;;205.50;1382.40;;;;;;5095189;28;20058;-75
2021/03/12 03:42:58;;;;;;;14.77;11.48;;;205.50;1382.40;;;;;;5095199;28;20028;-75
2021/03/12 03:45:27;;;;;;;16.85;11.15;;;205.60;1382.40;;;;;;5095520;28;20117;-75
2021/03/12 03:47:56;;;;;;;14.98;11.02;;;205.60;1382.40;;;;;;5095524;28;20032;-75
2021/03/12 03:50:22;;;;;;;16.95;11.45;;;205.60;1382.40;;;;;;5095380;28;20024;-76
2021/03/12 03:52:48;;;;;;;20.63;11.88;;;205.60;1382.40;;;;;;5096696;28;20537;-76
2021/03/12 03:55:15;;;;;;;14.32;10.80;;;205.60;1382.40;;;;;;5095402;28;20035;-76
2021/03/12 03:57:41;;;;;;;20.67;12.07;;;205.40;1408.00;;;;;;5095267;28;20445;-75
2021/03/12 04:00:09;;;;;;;15.50;11.90;;;205.50;1382.40;;;;;;5096380;28;20609;-76
2021/03/12 04:02:35;;;;;;;13.65;10.50;;;205.40;1382.40;;;;;;5096089;28;20102;-75
2021/03/12 04:05:03;;;;;;;14.60;10.88;;;205.50;1382.40;;;;;;5096606;28;20027;-75
2021/03/12 04:07:29;;;;;;;15.43;10.98;;;205.50;1382.40;;;;;;5096210;28;20052;-75
2021/03/12 04:09:56;;;;;;;16.27;12.60;;;205.50;1382.40;;;;;;5096712;28;20035;-75
2021/03/12 04:12:23;;;;;;;16.92;11.40;;;205.50;1408.00;;;;;;5096366;28;20063;-75
2021/03/12 04:14:50;;;;;;;16.45;11.43;;;205.50;1408.00;;;;;;5096252;28;20020;-75
2021/03/12 04:17:16;;;;;;;20.13;11.32;;;205.40;1382.40;;;;;;5096256;28;20028;-75
2021/03/12 04:19:44;;;;;;;13.65;11.02;;;205.50;1408.00;;;;;;5096069;28;20028;-75
2021/03/12 04:22:11;;;;;;;15.05;11.00;;;205.50;1408.00;;;;;;5096121;28;20020;-75
2021/03/12 04:24:38;;;;;;;15.35;10.90;;;205.50;1408.00;;;;;;5094716;28;20046;-75
2021/03/12 04:27:04;;;;;;;16.60;12.32;;;205.50;1408.00;;;;;;5096063;28;20030;-75
2021/03/12 04:29:30;;;;;;;13.80;10.63;;;205.60;1408.00;;;;;;5094511;28;20038;-75
2021/03/12 04:31:57;;;;;;;17.50;11.27;;;205.60;1433.60;;;;;;5093837;28;20028;-75
2021/03/12 04:34:23;;;;;;;15.82;11.32;;;205.60;1408.00;;;;;;5095350;28;20726;-75
2021/03/12 04:36:50;;;;;;;16.35;11.82;;;205.60;1408.00;;;;;;5094604;28;20805;-75
2021/03/12 04:39:15;;;;;;;16.25;11.35;;;205.60;1408.00;;;;;;5094240;28;20071;-75
2021/03/12 04:41:42;;;;;;;18.95;12.75;;;205.60;1408.00;;;;;;5095777;28;20044;-75
2021/03/12 04:44:10;;;;;;;16.63;10.85;;;205.60;1408.00;;;;;;5094433;28;20051;-75
2021/03/12 04:46:38;;;;;;;15.68;12.40;;;205.60;1408.00;;;;;;5095641;28;20456;-76
2021/03/12 04:49:07;;;;;;;16.02;11.60;;;205.60;1408.00;;;;;;5094024;28;20795;-76
2021/03/12 04:51:33;;;;;;;13.23;10.65;;;205.60;1408.00;;;;;;5095552;28;20024;-76
2021/03/12 04:53:59;;;;;;;17.40;11.10;;;205.60;1408.00;;;;;;5093810;28;20028;-76
2021/03/12 04:56:25;;;;;;;14.98;12.20;;;205.60;1408.00;;;;;;5095410;28;20031;-76
2021/03/12 04:58:51;;;;;;;16.95;11.38;;;205.60;1408.00;;;;;;5095494;28;20032;-75
2021/03/12 05:01:17;;;;;;;19.20;12.15;;;205.60;1433.60;;;;;;5095633;28;20031;-76
2021/03/12 05:03:43;;;;;;;16.67;10.95;;;205.60;1433.60;;;;;;5095451;28;20029;-76
2021/03/12 05:06:10;;;;;;;16.77;10.77;;;205.60;1433.60;;;;;;5095361;28;20063;-76
2021/03/12 05:08:38;;;;;;;16.02;10.77;;;205.60;1433.60;;;;;;5095164;28;20039;-76
2021/03/12 05:11:09;;;;;;;14.10;11.43;;;205.60;1433.60;;;;;;5095167;28;20056;-76
2021/03/12 05:13:36;;;;;;;21.48;12.27;;;205.60;1433.60;;;;;;5093917;28;20028;-76
2021/03/12 05:16:02;;;;;;;19.63;12.73;;;205.60;1433.60;;;;;;5095044;28;20050;-76
2021/03/12 05:18:27;;;;;;;15.15;11.77;;;205.60;1433.60;;;;;;5093489;28;20073;-76
2021/03/12 05:20:53;;;;;;;16.08;11.82;;;205.60;1433.60;;;;;;5093350;28;20028;-76
2021/03/12 05:23:21;;;;;;;16.08;12.32;;;205.60;1433.60;;;;;;5093125;28;20036;-76
2021/03/12 05:25:47;;;;;;;20.33;11.43;;;205.60;1433.60;;;;;;5094844;28;20017;-76
2021/03/12 05:28:13;;;;;;;17.30;11.80;;;205.70;1433.60;;;;;;5092868;28;20035;-76
2021/03/12 05:30:39;;;;;;;18.35;12.35;;;205.60;1433.60;;;;;;5094679;28;20035;-76
2021/03/12 05:33:06;;;;;;;19.20;14.77;;;205.60;1433.60;;;;;;5093076;28;20170;-75
2021/03/12 05:35:32;;;;;;;13.32;11.68;;;205.60;1433.60;;;;;;5093554;28;20028;-76
2021/03/12 05:37:58;;;;;;;17.13;12.88;;;205.60;1433.60;;;;;;5093433;28;20432;-76
2021/03/12 05:40:24;;;;;;;18.08;11.80;;;205.70;1433.60;;;;;;5093278;28;20028;-76
2021/03/12 05:42:52;;;;;;;15.98;10.93;;;205.60;1459.20;;;;;;5092848;28;20119;-76
2021/03/12 05:45:19;;;;;;;18.30;12.60;;;205.60;1433.60;;;;;;5093249;28;20020;-76
2021/03/12 05:47:45;;;;;;;17.15;12.05;;;205.70;1433.60;;;;;;5094426;28;20073;-76
2021/03/12 05:50:11;;;;;;;19.05;12.75;;;205.70;1408.00;;;;;;5094425;28;20538;-76
2021/03/12 05:52:37;;;;;;;17.35;11.35;;;205.70;1433.60;;;;;;5092421;28;20557;-76
2021/03/12 05:55:04;;;;;;;17.77;11.75;;;205.70;1433.60;;;;;;5092693;28;20028;-76
2021/03/12 05:57:30;;;;;;;16.75;11.27;;;205.70;1459.20;;;;;;5093534;28;20032;-76
2021/03/12 05:59:58;;;;;;;16.92;12.00;;;205.70;1459.20;;;;;;5093961;28;20024;-75
2021/03/12 06:02:25;;;;;;;21.33;13.98;;;205.70;1484.80;;;;;;5092506;28;20387;-75
2021/03/12 06:04:51;;;;;;;20.50;15.20;;;205.70;1484.80;;;;;;5092810;28;20472;-76
2021/03/12 06:07:17;;;;;;;28.17;16.75;;;205.70;1510.40;;;;;;5093853;28;20048;-76
2021/03/12 06:09:46;;;;;;;23.58;15.90;;;205.70;1561.60;;;;;;5092616;28;20031;-76
2021/03/12 06:12:13;;;;;;;21.88;15.63;;;205.70;1561.60;;;;;;5093509;28;20024;-75
2021/03/12 06:14:56;;;;;;;21.27;15.75;;;205.70;1561.60;;;;;;5091929;28;20039;-75
2021/03/12 06:17:44;;;;;;;22.08;14.55;;;205.70;1561.60;;;;;;5090956;28;20096;-75
2021/03/12 06:20:20;;;;;;;21.95;14.82;;;205.70;1561.60;;;;;;5092440;28;20027;-75
2021/03/12 06:22:49;;;;;;;24.95;16.70;;;205.70;1587.20;;;;;;5092365;28;20023;-75
2021/03/12 06:25:23;;;;;;;23.90;16.10;;;205.70;1612.80;;;;;;5093675;28;20031;-75
2021/03/12 06:27:52;;;;;;;27.48;19.50;;;205.60;1638.40;;;;;;5092518;28;20533;-76
2021/03/12 06:30:20;;;;;;;21.52;16.23;;;205.60;1664.00;;;;;;5093798;28;20031;-76
2021/03/12 06:32:54;;;;;;;24.02;15.60;;;205.60;1664.00;;;;;;5094058;28;20077;-76
2021/03/12 06:35:21;;;;;;;23.75;17.92;;;205.60;1689.60;;;;;;5092447;28;20077;-77
2021/03/12 06:37:48;;;;;;;23.05;14.82;;;205.60;1689.60;;;;;;5093487;28;20028;-77
2021/03/12 06:40:20;;;;;;;20.90;14.73;;;205.60;1689.60;;;;;;5093322;28;20035;-77
2021/03/12 06:42:58;;;;;;;23.20;16.20;;;205.70;1689.60;;;;;;5093809;28;20028;-76
2021/03/12 06:45:24;;;;;;;22.65;15.43;;;205.70;1689.60;;;;;;5092192;28;20036;-76
2021/03/12 06:47:50;;;;;;;28.73;18.33;;;205.70;1689.60;;;;;;5092255;28;20024;-77
2021/03/12 06:50:15;;;;;;;29.58;18.98;;;205.70;1715.20;;;;;;5091263;28;20024;-77
2021/03/12 06:52:41;;;;;;;31.00;19.35;;;205.70;1689.60;;;;;;5092535;28;20475;-76
2021/03/12 06:55:07;;;;;;;32.42;20.10;;;205.70;1689.60;;;;;;5091075;28;20040;-77
2021/03/12 06:57:33;;;;;;;26.02;18.70;;;205.70;1689.60;;;;;;5073428;28;20449;-77
2021/03/12 07:00:07;;;;;;;26.42;18.67;;;230.40;1715.20;;;;;;5092835;28;20031;-77
2021/03/12 07:02:35;;;;;;;31.10;20.65;;;230.40;1715.20;;;;;;5086690;28;20554;-76
2021/03/12 07:05:02;;;;;;;34.13;19.92;;;230.40;1715.20;;;;;;5075720;28;20107;-76
2021/03/12 07:07:35;;;;;;;28.35;21.23;;;230.40;1715.20;;;;;;5076416;28;20052;-77
2021/03/12 07:10:01;;;;;;;33.75;20.52;;;230.50;1740.80;;;;;;5075892;28;20096;-76
2021/03/12 07:13:12;;;;;;;26.58;18.60;;;230.50;1715.20;;;;;;5092493;28;20059;-75
2021/03/12 07:15:38;;;;;;;25.67;18.27;;;230.50;1740.80;;;;;;4998879;28;20029;-75
2021/03/12 07:18:04;;;;;;;29.70;20.15;;;230.60;1740.80;;;;;;5015044;28;20433;-77
2021/03/12 07:20:30;;;;;;;32.90;21.20;;;230.60;1792.00;;;;;;5053320;28;20032;-77
2021/03/12 07:22:57;;;;;;;35.35;21.75;;;230.70;1792.00;;;;;;5092157;28;20455;-78
2021/03/12 07:25:24;;;;;;;26.98;19.02;;;230.70;1817.60;;;;;;5076811;28;20026;-85
2021/03/12 07:27:52;;;;;;;34.53;21.73;;;230.80;1817.60;;;;;;5076759;28;20036;-77
2021/03/12 07:30:19;;;;;;;38.85;22.30;;;230.80;1792.00;;;;;;5092612;28;20071;-77
2021/03/12 07:32:47;;;;;;;31.63;21.08;;;230.80;1792.00;;;;;;5076931;28;20021;-77
2021/03/12 07:35:14;;;;;;;28.13;19.83;;;230.90;1766.40;;;;;;5076949;28;20455;-77
2021/03/12 07:37:41;;;;;;;33.30;21.33;;;230.90;1766.40;;;;;;5075596;28;20055;-76
2021/03/12 07:40:10;;;;;;;28.80;17.50;;;230.90;1740.80;;;;;;5075108;28;20048;-75
2021/03/12 07:42:36;;;;;;;69.20;25.08;;;230.90;1766.40;;;;;;5092263;28;20017;-73
2021/03/12 07:45:02;;;;;;;44.20;24.35;;;231.00;1740.80;;;;;;5076532;28;20376;-72
2021/03/12 07:47:28;;;;;;;35.42;20.35;;;231.10;1766.40;;;;;;5074870;28;20097;-72
2021/03/12 07:49:55;;;;;;;31.65;20.13;;;231.10;1766.40;;;;;;5076344;28;20492;-73
2021/03/12 07:52:51;;;;;;;32.92;19.83;;;231.10;1766.40;;;;;;5076135;28;20025;-73
2021/03/12 07:55:37;;;;;;;47.90;24.85;;;231.10;1817.60;;;;;;5068783;28;20056;-73
2021/03/12 07:58:05;;;;;;;40.95;25.88;;;231.10;1843.20;;;;;;5065428;28;20036;-72
2021/03/12 08:00:51;;;;;;;66.82;50.22;;;231.20;1843.20;;;;;;5075318;28;20036;-71
2021/03/12 08:03:43;;;;;;;57.10;35.40;;;231.20;1843.20;;;;;;5091215;28;20021;-72
2021/03/12 08:06:17;;;;;;;46.50;23.05;;;231.20;1868.80;;;;;;5075912;28;20045;-72
2021/03/12 08:08:47;;;;;;;41.03;23.48;;;231.20;1843.20;;;;;;5074608;28;20029;-72
2021/03/12 08:11:30;;;;;;;37.67;22.70;;;231.20;1843.20;;;;;;5074105;28;20029;-72
2021/03/12 08:14:19;;;;;;;41.45;22.15;;;231.20;1843.20;;;;;;5075709;28;20028;-72
2021/03/12 08:16:57;;;;;;;43.38;23.45;;;231.20;1843.20;;;;;;5075687;28;20031;-72
2021/03/12 08:19:32;;;;;;;44.05;24.08;;;231.20;1868.80;;;;;;5074330;28;20025;-72
2021/03/12 08:22:02;;;;;;;45.42;26.02;;;231.30;1868.80;;;;;;5074321;28;20028;-72
2021/03/12 08:24:46;;;;;;;51.40;29.67;;;256.00;1868.80;;;;;;5090765;28;20465;-72
2021/03/12 08:27:42;;;;;;;55.08;29.65;;;256.00;1868.80;;;;;;5075498;28;20453;-73
2021/03/12 08:30:10;;;;;;;53.63;30.10;;;256.10;1843.20;;;;;;5091115;28;20033;-72
2021/03/12 08:32:38;;;;;;;45.78;27.70;;;256.10;1868.80;;;;;;5075274;28;20032;-72
2021/03/12 08:35:25;;;;;;;32.22;21.27;;;256.10;1868.80;;;;;;5075381;28;20039;-73
2021/03/12 08:37:51;;;;;;;43.22;22.42;;;256.10;1843.20;;;;;;5090094;28;20040;-73
2021/03/12 08:40:17;;;;;;;42.55;24.08;;;256.10;1894.40;;;;;;5090603;28;20028;-73
2021/03/12 08:43:03;;;;;;;36.53;22.67;;;256.10;1920.00;;;;;;5074504;28;20070;-73
2021/03/12 08:45:40;;;;;;;36.83;21.65;;;256.10;1971.20;;;;;;5090989;28;20086;-74
2021/03/12 08:48:10;;;;;;;36.67;22.42;;;256.20;1920.00;;;;;;5075225;28;20491;-74
2021/03/12 08:50:39;;;;;;;45.67;27.42;;;256.20;1971.20;;;;;;5074189;28;20028;-73
2021/03/12 08:53:06;;;;;;;37.03;23.83;;;256.20;2022.40;;;;;;5090301;28;20437;-73
2021/03/12 08:55:36;;;;;;;35.15;23.38;;;256.30;1996.80;;;;;;5073549;28;20016;-73
2021/03/12 08:58:34;;;;;;;36.83;23.67;;;256.30;1996.80;;;;;;5074510;28;20088;-73
2021/03/12 09:01:15;;;;;;;37.97;25.20;;;256.30;1996.80;;;;;;5046099;28;20040;-73
2021/03/12 09:03:47;;;;;;;42.25;25.38;;;256.30;1996.80;;;;;;5074207;28;20024;-74
2021/03/12 09:06:16;;;;;;;38.03;24.10;;;256.30;1945.60;;;;;;5074031;28;20059;-74
2021/03/12 09:08:43;;;;;;;36.10;24.00;;;256.40;1945.60;;;;;;5074148;28;20427;-74
2021/03/12 09:11:15;;;;;;;37.03;25.77;;;256.40;2022.40;;;;;;5090230;28;20035;-74
2021/03/12 09:13:44;;;;;;;37.55;24.92;;;256.40;1996.80;;;;;;5073765;28;20059;-74
2021/03/12 09:16:10;;;;;;;47.53;25.45;;;256.40;2022.40;;;;;;5073862;28;20426;-74
2021/03/12 09:18:38;;;;;;;46.78;28.27;;;256.50;1996.80;;;;;;5074473;28;20020;-74
2021/03/12 09:21:06;;;;;;;50.50;29.27;;;256.50;2022.40;;;;;;5073740;28;20020;-73
2021/03/12 09:23:42;;;;;;;52.13;27.63;;;256.50;2022.40;;;;;;5089889;28;20028;-73
2021/03/12 09:26:18;;;;;;;47.47;28.30;;;256.60;2022.40;;;;;;5092907;28;20446;-73
2021/03/12 09:28:46;;;;;;;57.45;32.97;;;256.70;2073.60;;;;;;5092897;28;20396;-73
2021/03/12 09:31:14;;;;;;;59.03;34.42;;;256.70;2099.20;;;;;;5093243;28;20387;-73
2021/03/12 09:33:42;;;;;;;57.58;32.60;;;256.80;2124.80;;;;;;5093062;28;20031;-73
2021/03/12 09:36:23;;;;;;;37.25;25.42;;;256.80;2124.80;;;;;;5093048;28;20039;-73
2021/03/12 09:38:50;;;;;;;38.55;23.08;;;256.80;2124.80;;;;;;5091884;28;20535;-73
2021/03/12 09:41:21;;;;;;;30.67;18.48;;;256.90;2150.40;;;;;;5093404;28;20028;-73
2021/03/12 09:44:07;;;;;;;28.95;17.48;;;256.90;2150.40;;;;;;5093413;28;20044;-73
2021/03/12 09:46:41;;;;;;;30.15;19.75;;;281.60;2150.40;;;;;;5093309;28;20107;-73
2021/03/12 09:49:09;;;;;;;32.45;20.48;;;281.60;2150.40;;;;;;5092931;28;20078;-73
2021/03/12 09:51:35;;;;;;;44.55;29.40;;;281.60;2176.00;;;;;;5092213;28;20041;-73
2021/03/12 09:54:03;;;;;;;33.85;22.85;;;281.60;2176.00;;;;;;5093274;28;20024;-73
2021/03/12 09:56:29;;;;;;;33.38;19.75;;;281.70;2150.40;;;;;;5091908;28;20024;-73
2021/03/12 09:58:56;;;;;;;31.15;19.73;;;281.70;2201.60;;;;;;5093909;28;20545;-73
2021/03/12 10:01:22;;;;;;;37.20;22.73;;;281.70;2201.60;;;;;;5092679;28;20032;-73
2021/03/12 10:03:48;;;;;;;45.35;26.60;;;281.70;2227.20;;;;;;5091098;28;20076;-74
2021/03/12 10:06:15;;;;;;;47.25;30.20;;;281.80;2227.20;;;;;;5093545;28;20508;-74
2021/03/12 10:09:09;;;;;;;42.95;28.88;;;281.80;2227.20;;;;;;5092728;28;20024;-74
2021/03/12 10:11:42;;;;;;;52.00;28.45;;;281.80;2201.60;;;;;;5092929;28;20029;-74
2021/03/12 10:14:38;;;;;;;44.83;29.15;;;281.80;2176.00;;;;;;5090947;28;20532;-73
2021/03/12 10:17:28;;;;;;;50.20;30.50;;;281.90;2227.20;;;;;;5093120;28;20041;-73
2021/03/12 10:20:12;;;;;;;52.25;33.40;;;281.90;2252.80;;;;;;5078268;28;20068;-74
2021/03/12 10:22:43;;;;;;;47.55;25.05;;;282.00;2227.20;;;;;;5090781;28;20105;-74
2021/03/12 10:25:11;;;;;;;26.35;17.08;;;281.90;2227.20;;;;;;5091619;28;20028;-74
2021/03/12 10:27:41;;;;;;;26.73;16.77;;;281.90;2252.80;;;;;;5091923;28;20436;-73
2021/03/12 10:30:13;;;;;;;26.20;16.80;;;281.90;2252.80;;;;;;5092774;28;20048;-73
2021/03/12 10:32:59;;;;;;;26.73;15.98;;;282.00;2252.80;;;;;;5091159;28;20036;-74
2021/03/12 10:35:36;;;;;;;26.25;16.90;;;282.00;2252.80;;;;;;5091827;28;20480;-73
2021/03/12 10:38:05;;;;;;;25.40;16.05;;;282.00;2278.40;;;;;;5071299;28;20078;-71
2021/03/12 10:40:38;;;;;;;32.50;19.33;;;282.10;2252.80;;;;;;5073178;28;20542;-74
2021/03/12 10:43:10;;;;;;;32.10;20.35;;;282.20;2278.40;;;;;;5073655;28;20032;-73
2021/03/12 10:45:41;;;;;;;36.78;22.75;;;282.10;2278.40;;;;;;5073318;28;20472;-74
2021/03/12 10:48:07;;;;;;;52.08;29.25;;;282.10;2278.40;;;;;;5071632;28;20025;-74
2021/03/12 10:50:36;;;;;;;58.47;33.55;;;282.20;2278.40;;;;;;5070191;28;20071;-73
2021/03/12 10:53:06;;;;;;;57.33;34.95;;;282.20;2278.40;;;;;;5071391;28;20021;-74
2021/03/12 10:55:34;;;;;;;66.93;39.65;;;282.20;2278.40;;;;;;5071896;28;20598;-74
2021/03/12 10:58:00;;;;;;;51.80;34.10;;;282.20;2278.40;;;;;;5070315;28;20034;-74
2021/03/12 11:00:27;;;;;;;46.30;30.67;;;282.20;2278.40;;;;;;5070451;28;20082;-74
2021/03/12 11:02:59;;;;;;;50.05;32.20;;;282.20;2278.40;;;;;;5071681;28;20070;-74
2021/03/12 11:05:25;;;;;;;59.42;34.45;;;282.20;2278.40;;;;;;5070046;28;20103;-74
2021/03/12 11:07:51;;;;;;;70.30;37.60;;;282.20;2278.40;;;;;;5070248;28;20108;-74
2021/03/12 11:10:20;;;;;;;74.15;45.33;;;282.20;2278.40;;;;;;5071347;28;20021;-74
2021/03/12 11:12:48;;;;;;;72.93;45.75;;;282.20;2278.40;;;;;;5070166;28;20454;-73
2021/03/12 11:15:20;;;;;;;83.10;50.33;;;282.30;2278.40;;;;;;5071141;28;20041;-74
2021/03/12 11:17:47;;;;;;;75.82;48.58;;;282.30;2278.40;;;;;;5069733;28;20029;-74
2021/03/12 11:20:17;;;;;;;71.82;45.53;;;282.30;2278.40;;;;;;5071091;28;20361;-74
2021/03/12 11:22:43;;;;;;;72.97;43.67;;;282.40;2278.40;;;;;;5071255;28;20020;-74
2021/03/12 11:25:09;;;;;;;61.28;42.05;;;282.40;2278.40;;;;;;5071194;28;20027;-74
2021/03/12 11:27:35;;;;;;;57.50;33.70;;;282.40;2278.40;;;;;;5071204;28;20044;-74
2021/03/12 11:30:05;;;;;;;50.50;32.90;;;282.40;2278.40;;;;;;5071143;28;20085;-74
2021/03/12 11:32:32;;;;;;;50.90;33.87;;;282.50;2252.80;;;;;;5071043;28;20400;-74
2021/03/12 11:34:58;;;;;;;47.30;31.13;;;282.40;2227.20;;;;;;5071209;28;20032;-74
2021/03/12 11:37:24;;;;;;;50.95;31.25;;;282.50;2227.20;;;;;;5068797;28;20123;-74
2021/03/12 11:39:49;;;;;;;49.08;32.25;;;282.40;2252.80;;;;;;5069408;28;20120;-74
2021/03/12 11:42:15;;;;;;;53.40;33.67;;;282.50;2252.80;;;;;;5070734;28;20059;-74
2021/03/12 11:44:41;;;;;;;63.67;38.75;;;282.50;2252.80;;;;;;5069785;28;20532;-74
2021/03/12 11:47:07;;;;;;;71.82;44.13;;;282.50;2252.80;;;;;;5070918;28;20082;-74
2021/03/12 11:49:33;;;;;;;61.45;40.20;;;307.20;2252.80;;;;;;5069277;28;20033;-74
2021/03/12 11:52:00;;;;;;;61.55;37.70;;;307.20;2252.80;;;;;;5074527;28;20055;-74
2021/03/12 11:54:25;;;;;;;61.65;37.95;;;307.20;2278.40;;;;;;5074688;28;20059;-74
2021/03/12 11:56:51;;;;;;;58.40;35.72;;;307.20;2304.00;;;;;;5074789;28;20016;-74
2021/03/12 11:59:18;;;;;;;36.60;23.92;;;307.30;2304.00;;;;;;5072976;28;20032;-74
2021/03/12 12:01:47;;;;;;;33.10;21.05;;;307.30;2252.80;;;;;;5073153;28;20035;-74
2021/03/12 12:04:13;;;;;;;26.10;15.70;;;307.30;2252.80;;;;;;5073926;28;20032;-75
2021/03/12 12:06:39;;;;;;;23.40;15.40;;;307.30;2252.80;;;;;;5073020;28;20052;-74
2021/03/12 12:09:05;;;;;;;14.20;10.07;;;307.40;2252.80;;;;;;5074458;28;20028;-74